Time;durP1;ratioP1;P1;durP2;ratioP2;P2;SDS_P1;SDS_P2;PMS_P1;PMS_P2;Temp;Humidity;BMP_temperature;BMP_pressure;BME280_temperature;BME280_humidity;BME280_pressure;Samples;Min_cycle;Max_cycle;Signal;HPM_P1;HPM_P2
2023/06/28 00:00:12;;;;;;;7.90;2.00;;;16.80;99.90;;;;;;5099485;28;20172;-57
2023/06/28 00:02:38;;;;;;;6.57;1.73;;;16.70;99.90;;;;;;5098587;28;20179;-54
2023/06/28 00:05:07;;;;;;;5.30;1.80;;;16.70;99.90;;;;;;5099291;28;20160;-53
2023/06/28 00:07:33;;;;;;;3.70;1.40;;;16.70;99.90;;;;;;5098222;28;20524;-58
2023/06/28 00:09:59;;;;;;;7.97;1.40;;;16.70;99.90;;;;;;5099399;28;20295;-56
2023/06/28 00:12:28;;;;;;;9.67;1.83;;;16.70;99.90;;;;;;5098360;28;20209;-53
2023/06/28 00:14:54;;;;;;;6.30;1.57;;;16.60;99.90;;;;;;5099021;28;20187;-57
2023/06/28 00:17:27;;;;;;;2.50;1.47;;;16.60;99.90;;;;;;5097906;28;20164;-55
2023/06/28 00:19:53;;;;;;;7.07;2.27;;;16.60;99.90;;;;;;5098563;28;20427;-56
2023/06/28 00:22:19;;;;;;;4.80;1.57;;;16.60;99.90;;;;;;5097804;28;20536;-53
2023/06/28 00:24:44;;;;;;;6.83;2.00;;;16.60;99.90;;;;;;5097640;28;20307;-56
2023/06/28 00:27:11;;;;;;;5.63;2.10;;;16.60;99.90;;;;;;5097139;28;20446;-54
2023/06/28 00:29:37;;;;;;;5.40;1.60;;;16.60;99.90;;;;;;5093293;28;20216;-57
2023/06/28 00:32:04;;;;;;;6.33;1.77;;;16.60;99.90;;;;;;5095046;28;20176;-58
2023/06/28 00:34:29;;;;;;;7.37;1.80;;;16.60;99.90;;;;;;5094770;28;20594;-55
2023/06/28 00:36:55;;;;;;;3.77;1.87;;;16.60;99.90;;;;;;5094690;28;20596;-52
2023/06/28 00:39:20;;;;;;;6.67;1.73;;;16.60;99.90;;;;;;5094757;28;20168;-58
2023/06/28 00:41:46;;;;;;;6.67;1.50;;;16.60;99.90;;;;;;5097408;28;20175;-58
2023/06/28 00:44:11;;;;;;;4.10;1.70;;;16.60;99.90;;;;;;5097089;28;20204;-56
2023/06/28 00:46:37;;;;;;;3.57;1.40;;;16.60;99.90;;;;;;5096430;28;20244;-58
2023/06/28 00:49:03;;;;;;;5.33;1.50;;;16.60;99.90;;;;;;5097387;28;20298;-58
2023/06/28 00:51:31;;;;;;;5.67;1.87;;;16.60;99.90;;;;;;5097446;28;20433;-58
2023/06/28 00:53:58;;;;;;;6.23;1.73;;;16.60;99.90;;;;;;5096357;28;20521;-58
2023/06/28 00:56:24;;;;;;;8.53;1.80;;;16.60;99.90;;;;;;5096118;28;20240;-57
2023/06/28 00:58:51;;;;;;;4.80;1.77;;;16.60;99.90;;;;;;5094189;28;20176;-55
2023/06/28 01:01:17;;;;;;;4.30;1.60;;;16.50;99.90;;;;;;5093791;28;20434;-56
2023/06/28 01:03:43;;;;;;;8.60;1.53;;;16.50;99.90;;;;;;5091774;28;20225;-53
2023/06/28 01:06:12;;;;;;;6.20;1.70;;;16.40;99.90;;;;;;5092643;28;20171;-55
2023/06/28 01:08:40;;;;;;;5.60;2.00;;;16.40;99.90;;;;;;5091624;28;20168;-55
2023/06/28 01:11:06;;;;;;;3.50;1.67;;;16.40;99.90;;;;;;5091516;28;20186;-56
2023/06/28 01:13:34;;;;;;;6.70;1.50;;;16.40;99.90;;;;;;5093028;28;20566;-55
2023/06/28 01:16:00;;;;;;;7.07;2.10;;;16.40;99.90;;;;;;5095077;28;20623;-58
2023/06/28 01:18:26;;;;;;;4.97;1.97;;;16.30;99.90;;;;;;5094539;28;20235;-56
2023/06/28 01:20:54;;;;;;;6.70;1.67;;;16.30;99.90;;;;;;5096121;28;20231;-59
2023/06/28 01:23:25;;;;;;;6.53;2.30;;;16.30;99.90;;;;;;5093695;28;20180;-57
2023/06/28 01:25:52;;;;;;;7.73;1.83;;;16.30;99.90;;;;;;5096178;28;20462;-57
2023/06/28 01:28:19;;;;;;;5.70;1.80;;;16.30;99.90;;;;;;5095414;28;20175;-56
2023/06/28 01:30:48;;;;;;;5.73;2.00;;;16.30;99.90;;;;;;5093945;28;20253;-55
2023/06/28 01:33:15;;;;;;;3.40;1.40;;;16.30;99.90;;;;;;5094290;28;20176;-57
2023/06/28 01:35:41;;;;;;;5.23;2.03;;;16.30;99.90;;;;;;5095033;28;20175;-55
2023/06/28 01:38:09;;;;;;;5.70;2.00;;;16.20;99.90;;;;;;5097066;28;20164;-54
2023/06/28 01:40:36;;;;;;;5.23;1.33;;;16.20;99.90;;;;;;5095328;28;20434;-56
2023/06/28 01:43:06;;;;;;;5.50;2.07;;;16.20;99.90;;;;;;5096320;28;20169;-56
2023/06/28 01:45:36;;;;;;;7.07;1.83;;;16.20;99.90;;;;;;5094390;28;20249;-55
2023/06/28 01:48:02;;;;;;;4.17;1.67;;;16.20;99.90;;;;;;5095545;28;20310;-58
2023/06/28 01:50:31;;;;;;;5.23;1.60;;;16.20;99.90;;;;;;5095622;28;20212;-55
2023/06/28 01:52:59;;;;;;;4.97;1.67;;;16.20;99.90;;;;;;5095437;28;20241;-52
2023/06/28 01:55:25;;;;;;;6.00;2.17;;;16.10;99.90;;;;;;5094391;28;20178;-55
2023/06/28 01:57:51;;;;;;;8.07;1.80;;;16.10;99.90;;;;;;5095125;28;20262;-53
2023/06/28 02:00:17;;;;;;;6.67;2.03;;;16.10;99.90;;;;;;5096142;28;20660;-57
2023/06/28 02:02:43;;;;;;;3.90;2.17;;;16.10;99.90;;;;;;5092759;28;20176;-54
2023/06/28 02:05:09;;;;;;;5.47;1.60;;;16.10;99.90;;;;;;5089420;28;20399;-57
2023/06/28 02:07:34;;;;;;;9.20;1.93;;;16.10;99.90;;;;;;5093229;28;20176;-54
2023/06/28 02:10:00;;;;;;;8.27;1.57;;;16.10;99.90;;;;;;5092896;28;20264;-58
2023/06/28 02:12:26;;;;;;;5.73;2.00;;;16.00;99.90;;;;;;5093216;28;20255;-56
2023/06/28 02:14:52;;;;;;;1.67;1.57;;;16.00;99.90;;;;;;5091187;28;20177;-57
2023/06/28 02:17:20;;;;;;;6.03;2.30;;;16.10;99.90;;;;;;5092300;28;20175;-56
2023/06/28 02:19:49;;;;;;;5.00;2.00;;;16.10;99.90;;;;;;5093634;28;20175;-57
2023/06/28 02:22:16;;;;;;;11.20;2.50;;;16.00;99.90;;;;;;5092839;28;20713;-57
2023/06/28 02:24:42;;;;;;;6.60;2.30;;;16.00;99.90;;;;;;5093273;28;20458;-57
2023/06/28 02:27:09;;;;;;;10.90;1.67;;;16.00;99.90;;;;;;5095573;28;20173;-57
2023/06/28 02:29:35;;;;;;;5.13;2.30;;;16.00;99.90;;;;;;5096378;28;20227;-58
2023/06/28 02:32:00;;;;;;;5.17;1.83;;;16.00;99.90;;;;;;5098617;28;20179;-55
2023/06/28 02:34:26;;;;;;;4.70;2.30;;;16.00;99.90;;;;;;5098910;28;20164;-56
2023/06/28 02:36:52;;;;;;;7.00;1.80;;;16.00;99.90;;;;;;5100389;28;20180;-58
2023/06/28 02:39:18;;;;;;;8.50;2.17;;;16.00;99.90;;;;;;5099570;28;20247;-57
2023/06/28 02:41:43;;;;;;;5.27;1.97;;;16.00;99.90;;;;;;5098044;28;20362;-57
2023/06/28 02:44:09;;;;;;;8.13;3.13;;;16.00;99.90;;;;;;5097765;28;20206;-55
2023/06/28 02:46:35;;;;;;;6.27;1.97;;;16.00;99.90;;;;;;5097987;28;20175;-58
2023/06/28 02:49:00;;;;;;;9.70;2.13;;;15.90;99.90;;;;;;5097895;28;20208;-55
2023/06/28 02:51:26;;;;;;;9.73;3.00;;;15.90;99.90;;;;;;5097392;28;20451;-58
2023/06/28 02:53:52;;;;;;;4.80;2.53;;;15.90;99.90;;;;;;5099168;28;20180;-56
2023/06/28 02:56:17;;;;;;;10.63;2.97;;;15.90;99.90;;;;;;5097594;28;20223;-55
2023/06/28 02:58:43;;;;;;;7.90;2.90;;;15.90;99.90;;;;;;5096556;28;20179;-56
2023/06/28 03:01:09;;;;;;;5.37;2.50;;;15.90;99.90;;;;;;5098634;28;20164;-58
2023/06/28 03:03:36;;;;;;;8.77;2.23;;;15.90;99.90;;;;;;5098068;28;20183;-57
2023/06/28 03:06:03;;;;;;;6.43;2.43;;;15.90;99.90;;;;;;5098116;28;20325;-57
2023/06/28 03:08:29;;;;;;;9.73;2.77;;;15.90;99.90;;;;;;5096860;28;20455;-56
2023/06/28 03:10:55;;;;;;;9.13;2.83;;;15.90;99.90;;;;;;5095620;28;20271;-57
2023/06/28 03:13:21;;;;;;;7.63;2.67;;;15.90;99.90;;;;;;5096787;28;20213;-57
2023/06/28 03:15:47;;;;;;;5.73;2.20;;;15.90;99.90;;;;;;5094527;28;20304;-57
2023/06/28 03:21:34;;;;;;;9.77;2.87;;;15.90;99.90;;;;;;5096632;28;20229;-54
2023/06/28 03:24:00;;;;;;;7.33;2.20;;;15.80;99.90;;;;;;5095319;28;20168;-57
2023/06/28 03:26:26;;;;;;;7.73;3.03;;;15.80;99.90;;;;;;5095430;28;20180;-54
2023/06/28 03:28:53;;;;;;;6.87;2.30;;;15.90;99.90;;;;;;5095763;28;20262;-57
2023/06/28 03:31:19;;;;;;;9.63;2.50;;;15.80;99.90;;;;;;5093814;28;20663;-57
2023/06/28 03:33:44;;;;;;;11.97;3.00;;;15.90;99.90;;;;;;5094865;28;20180;-56
2023/06/28 03:36:10;;;;;;;8.13;2.53;;;15.80;99.90;;;;;;5094837;28;20171;-54
2023/06/28 03:38:36;;;;;;;12.83;3.57;;;15.90;99.90;;;;;;5095965;28;20164;-57
2023/06/28 03:41:02;;;;;;;9.00;2.53;;;15.80;99.90;;;;;;5096117;28;20532;-56
2023/06/28 03:43:27;;;;;;;10.23;2.90;;;15.90;99.90;;;;;;5095420;28;20478;-58
2023/06/28 03:45:53;;;;;;;6.10;2.60;;;15.90;99.90;;;;;;5094298;28;20164;-57
2023/06/28 03:48:18;;;;;;;12.10;2.57;;;15.90;99.90;;;;;;5094659;28;20167;-56
2023/06/28 03:50:44;;;;;;;8.73;3.03;;;15.90;99.90;;;;;;5094084;28;20575;-56
2023/06/28 03:53:10;;;;;;;7.87;3.00;;;15.90;99.90;;;;;;5092463;28;20260;-57
2023/06/28 03:55:37;;;;;;;7.97;2.97;;;16.00;99.90;;;;;;5093293;28;20160;-56
2023/06/28 03:58:02;;;;;;;6.77;3.07;;;16.00;99.90;;;;;;5092432;28;20168;-56
2023/06/28 04:00:28;;;;;;;6.70;3.37;;;16.00;99.90;;;;;;5091281;28;20176;-51
2023/06/28 04:02:54;;;;;;;5.23;2.33;;;15.90;99.90;;;;;;5090721;28;20533;-57
2023/06/28 04:05:19;;;;;;;7.33;2.40;;;16.00;99.90;;;;;;5091519;28;20187;-56
2023/06/28 04:07:54;;;;;;;10.33;3.33;;;16.00;99.90;;;;;;5092643;28;20176;-57
2023/06/28 04:10:20;;;;;;;9.47;3.53;;;15.90;99.90;;;;;;5092018;28;20199;-53
2023/06/28 04:12:46;;;;;;;8.17;2.47;;;16.00;99.90;;;;;;5093421;28;20603;-57
2023/06/28 04:15:12;;;;;;;4.07;2.17;;;15.90;99.90;;;;;;5091213;28;20269;-54
2023/06/28 04:17:38;;;;;;;11.73;3.10;;;15.90;99.90;;;;;;5090598;28;20172;-57
2023/06/28 04:20:07;;;;;;;9.33;3.20;;;16.00;99.90;;;;;;5091255;28;20536;-55
2023/06/28 04:22:33;;;;;;;5.30;2.67;;;16.00;99.90;;;;;;5089931;28;20276;-56
2023/06/28 04:24:59;;;;;;;8.33;2.17;;;16.00;99.90;;;;;;5089896;28;20562;-58
2023/06/28 04:27:25;;;;;;;9.57;2.90;;;16.00;99.90;;;;;;5090544;28;20168;-58
2023/06/28 04:29:51;;;;;;;5.13;2.43;;;16.00;99.90;;;;;;5089919;28;20626;-56
2023/06/28 04:32:22;;;;;;;10.33;3.23;;;16.00;99.90;;;;;;5092411;28;20174;-57
2023/06/28 04:34:52;;;;;;;4.73;1.87;;;16.00;99.90;;;;;;5094180;28;20201;-53
2023/06/28 04:37:21;;;;;;;9.43;2.47;;;16.00;99.90;;;;;;5093074;28;20158;-60
2023/06/28 04:39:47;;;;;;;12.03;3.27;;;16.00;99.90;;;;;;5091305;28;20271;-57
2023/06/28 04:42:14;;;;;;;9.57;2.80;;;16.00;99.90;;;;;;5093183;28;20275;-58
2023/06/28 04:44:43;;;;;;;5.63;2.30;;;16.00;99.90;;;;;;5090208;28;20203;-58
2023/06/28 04:47:09;;;;;;;9.63;2.60;;;16.00;99.90;;;;;;5089704;28;20594;-56
2023/06/28 04:49:35;;;;;;;11.80;2.90;;;16.00;99.90;;;;;;5091463;28;20525;-56
2023/06/28 04:52:01;;;;;;;6.03;2.37;;;16.00;99.90;;;;;;5090841;28;20578;-55
2023/06/28 04:54:26;;;;;;;12.33;2.87;;;16.10;99.90;;;;;;5090055;28;20166;-58
2023/06/28 04:56:52;;;;;;;8.50;3.00;;;16.10;99.90;;;;;;5089943;28;20248;-56
2023/06/28 04:59:17;;;;;;;11.07;2.90;;;16.10;99.90;;;;;;5088075;28;20200;-53
2023/06/28 05:01:43;;;;;;;7.70;2.37;;;16.10;99.90;;;;;;5086735;28;20176;-56
2023/06/28 05:04:09;;;;;;;8.87;2.63;;;16.10;99.90;;;;;;5089395;28;20164;-56
2023/06/28 05:06:37;;;;;;;9.57;2.67;;;16.10;99.90;;;;;;5087835;28;20461;-55
2023/06/28 05:09:03;;;;;;;7.77;2.00;;;16.10;99.90;;;;;;5087588;28;20168;-56
2023/06/28 05:11:28;;;;;;;6.97;2.80;;;16.10;99.90;;;;;;5085722;28;20179;-56
2023/06/28 05:13:53;;;;;;;4.73;2.43;;;16.10;99.90;;;;;;5085528;28;20429;-52
2023/06/28 05:16:19;;;;;;;10.40;3.20;;;16.10;99.90;;;;;;5085092;28;20267;-54
2023/06/28 05:18:46;;;;;;;9.20;2.60;;;16.10;99.90;;;;;;5083794;28;20374;-57
2023/06/28 05:21:11;;;;;;;9.43;2.13;;;16.10;99.90;;;;;;5083349;28;20176;-55
2023/06/28 05:23:37;;;;;;;6.13;2.90;;;16.10;99.90;;;;;;5084292;28;20164;-57
2023/06/28 05:26:03;;;;;;;9.33;2.83;;;16.20;99.90;;;;;;5082536;28;20168;-56
2023/06/28 05:28:28;;;;;;;6.80;2.37;;;16.20;99.90;;;;;;5083424;28;20186;-57
2023/06/28 05:30:54;;;;;;;6.20;2.27;;;16.20;99.90;;;;;;5083963;28;20228;-56
2023/06/28 05:33:19;;;;;;;8.47;2.43;;;16.20;99.90;;;;;;5083363;28;20202;-57
2023/06/28 05:35:45;;;;;;;7.00;2.63;;;16.20;99.90;;;;;;5081593;28;20237;-54
2023/06/28 05:38:10;;;;;;;9.17;2.27;;;16.30;99.90;;;;;;5083836;28;20163;-58
2023/06/28 05:40:36;;;;;;;5.50;1.90;;;16.30;99.90;;;;;;5083646;28;20176;-56
2023/06/28 05:43:02;;;;;;;5.93;2.00;;;16.30;99.90;;;;;;5083384;28;20450;-55
2023/06/28 05:45:28;;;;;;;10.10;2.50;;;16.30;99.90;;;;;;5084835;28;20213;-54
2023/06/28 05:47:55;;;;;;;8.93;2.30;;;16.40;99.90;;;;;;5084497;28;20479;-57
2023/06/28 05:50:21;;;;;;;4.87;2.07;;;16.40;99.90;;;;;;5087850;28;20227;-56
2023/06/28 05:52:48;;;;;;;10.43;2.67;;;16.40;99.90;;;;;;5088863;28;20331;-57
2023/06/28 05:55:14;;;;;;;4.97;2.03;;;16.40;99.90;;;;;;5087106;28;20172;-55
2023/06/28 05:57:39;;;;;;;4.17;2.30;;;16.40;99.90;;;;;;5086673;28;20365;-57
2023/06/28 06:00:06;;;;;;;7.23;2.37;;;16.50;99.90;;;;;;5088789;28;20245;-57
2023/06/28 06:02:33;;;;;;;6.87;2.20;;;16.50;99.90;;;;;;5086978;28;20168;-55
2023/06/28 06:04:58;;;;;;;8.17;1.90;;;16.60;99.90;;;;;;5085356;28;20259;-58
2023/06/28 06:07:24;;;;;;;8.13;2.17;;;16.60;99.90;;;;;;5084374;28;20506;-57
2023/06/28 06:09:49;;;;;;;9.53;2.27;;;16.60;99.90;;;;;;5086041;28;20563;-57
2023/06/28 06:12:15;;;;;;;6.07;1.77;;;16.60;99.90;;;;;;5088274;28;20172;-55
2023/06/28 06:14:40;;;;;;;6.83;2.17;;;16.60;99.90;;;;;;5083030;28;20434;-52
2023/06/28 06:17:06;;;;;;;7.30;2.80;;;16.70;99.90;;;;;;5082315;28;20168;-57
2023/06/28 06:19:31;;;;;;;9.10;2.83;;;16.70;99.90;;;;;;5083162;28;20317;-57
2023/06/28 06:21:57;;;;;;;4.17;2.00;;;16.70;99.90;;;;;;5084760;28;20168;-56
2023/06/28 06:24:22;;;;;;;6.80;2.33;;;16.70;99.90;;;;;;5082130;28;20679;-57
2023/06/28 06:26:48;;;;;;;9.57;2.43;;;16.70;99.90;;;;;;5082710;28;20195;-58
2023/06/28 06:29:13;;;;;;;9.57;2.10;;;16.80;99.90;;;;;;5077920;28;20228;-55
2023/06/28 06:31:39;;;;;;;11.27;2.50;;;16.80;99.90;;;;;;5076724;28;20179;-56
2023/06/28 06:34:04;;;;;;;4.90;2.33;;;16.80;99.90;;;;;;5075303;28;20167;-56
2023/06/28 06:36:30;;;;;;;4.60;1.70;;;16.80;99.90;;;;;;5074492;28;20515;-57
2023/06/28 06:38:56;;;;;;;6.40;1.87;;;16.90;99.90;;;;;;5074468;28;20635;-55
2023/06/28 06:41:22;;;;;;;6.43;1.90;;;16.90;99.90;;;;;;5074860;28;20209;-57
2023/06/28 06:43:48;;;;;;;6.90;1.67;;;16.90;99.90;;;;;;5074925;28;20258;-53
2023/06/28 06:46:14;;;;;;;5.03;2.10;;;17.00;99.90;;;;;;5071831;28;20253;-56
2023/06/28 06:48:40;;;;;;;4.03;1.90;;;17.00;99.90;;;;;;5075265;28;20400;-58
2023/06/28 06:51:07;;;;;;;5.50;1.97;;;17.00;99.90;;;;;;5074520;28;20192;-55
2023/06/28 06:53:32;;;;;;;7.43;2.10;;;17.00;99.90;;;;;;5078083;28;20560;-56
2023/06/28 06:55:59;;;;;;;8.90;2.23;;;17.10;99.90;;;;;;5078014;28;20621;-55
2023/06/28 06:58:25;;;;;;;3.63;1.47;;;17.10;99.90;;;;;;5077189;28;20164;-57
2023/06/28 07:00:52;;;;;;;5.00;1.67;;;17.10;99.90;;;;;;5075588;28;20267;-57
2023/06/28 07:03:20;;;;;;;7.83;2.10;;;17.10;99.90;;;;;;5077234;28;20207;-57
2023/06/28 07:05:46;;;;;;;5.50;1.70;;;17.20;99.90;;;;;;5078471;28;20176;-55
2023/06/28 07:08:11;;;;;;;5.73;2.17;;;17.30;99.90;;;;;;5075190;28;20381;-58
2023/06/28 07:10:37;;;;;;;4.50;1.67;;;17.30;99.90;;;;;;5076290;28;20482;-57
2023/06/28 07:13:03;;;;;;;4.50;1.60;;;17.30;99.90;;;;;;5077069;28;20203;-58
2023/06/28 07:15:29;;;;;;;6.93;1.93;;;17.30;99.90;;;;;;5076594;28;20177;-59
2023/06/28 07:17:54;;;;;;;5.67;1.90;;;17.30;99.90;;;;;;5078733;28;20164;-58
2023/06/28 07:20:21;;;;;;;5.07;2.17;;;17.40;99.90;;;;;;5074580;28;20175;-56
2023/06/28 07:22:46;;;;;;;10.03;2.10;;;17.40;99.90;;;;;;5076977;28;20198;-58
2023/06/28 07:25:12;;;;;;;5.33;2.67;;;17.40;99.90;;;;;;5079282;28;20164;-57
2023/06/28 07:27:38;;;;;;;8.63;2.63;;;17.40;99.90;;;;;;5078632;28;20192;-58
2023/06/28 07:30:06;;;;;;;3.40;1.70;;;17.40;99.90;;;;;;5079755;28;20463;-56
2023/06/28 07:32:31;;;;;;;8.77;2.23;;;17.40;99.90;;;;;;5080858;28;20179;-55
2023/06/28 07:34:57;;;;;;;6.77;2.37;;;17.50;99.90;;;;;;5083384;28;20164;-56
2023/06/28 07:37:23;;;;;;;6.83;1.93;;;17.50;99.90;;;;;;5082289;28;20196;-56
2023/06/28 07:39:48;;;;;;;7.13;2.93;;;17.50;99.90;;;;;;5081339;28;20333;-55
2023/06/28 07:42:14;;;;;;;5.97;2.10;;;17.50;99.90;;;;;;5083247;28;20553;-58
2023/06/28 07:44:40;;;;;;;4.40;2.27;;;17.60;99.90;;;;;;5081822;28;20172;-58
2023/06/28 07:47:06;;;;;;;9.60;2.37;;;17.60;99.90;;;;;;5080952;28;20164;-57
2023/06/28 07:49:31;;;;;;;4.87;2.40;;;17.60;99.90;;;;;;5078016;28;20215;-53
2023/06/28 07:51:59;;;;;;;4.50;2.13;;;17.60;99.90;;;;;;5076705;28;20370;-58
2023/06/28 07:54:24;;;;;;;5.53;2.07;;;17.70;99.90;;;;;;5074197;28;20621;-55
2023/06/28 07:56:50;;;;;;;6.60;2.30;;;17.70;99.90;;;;;;5070855;28;20755;-58
2023/06/28 07:59:17;;;;;;;4.43;1.97;;;17.70;99.90;;;;;;5073230;28;20267;-57
2023/06/28 08:01:43;;;;;;;3.97;1.80;;;17.80;99.90;;;;;;5074941;28;20253;-55
2023/06/28 08:04:08;;;;;;;6.67;2.30;;;17.80;99.90;;;;;;5073411;28;20336;-56
2023/06/28 08:06:34;;;;;;;3.77;2.17;;;17.90;99.90;;;;;;5073132;28;20179;-57
2023/06/28 08:09:00;;;;;;;3.93;1.90;;;17.90;99.90;;;;;;5075854;28;20182;-57
2023/06/28 08:11:26;;;;;;;9.87;2.07;;;18.00;99.90;;;;;;5073662;28;20307;-58
2023/06/28 08:13:52;;;;;;;6.27;2.07;;;18.00;99.90;;;;;;5073385;28;20552;-56
2023/06/28 08:16:18;;;;;;;6.27;2.40;;;18.00;99.90;;;;;;5071240;28;20413;-57
2023/06/28 08:18:43;;;;;;;6.57;1.80;;;18.00;99.90;;;;;;5071437;28;20225;-56
2023/06/28 08:21:09;;;;;;;6.23;2.30;;;18.00;99.90;;;;;;5071663;28;20318;-56
2023/06/28 08:23:34;;;;;;;4.33;2.23;;;18.00;99.90;;;;;;5072033;28;20456;-57
2023/06/28 08:26:01;;;;;;;6.37;2.90;;;18.00;99.90;;;;;;5077568;28;20164;-55
2023/06/28 08:28:27;;;;;;;4.00;1.80;;;18.00;99.90;;;;;;5083704;28;20168;-56
2023/06/28 08:30:52;;;;;;;4.87;1.80;;;18.10;99.90;;;;;;5085030;28;20297;-58
2023/06/28 08:33:18;;;;;;;8.47;3.03;;;18.20;99.90;;;;;;5086022;28;20420;-58
2023/06/28 08:35:43;;;;;;;4.67;1.97;;;18.30;99.90;;;;;;5086863;28;20169;-56
2023/06/28 08:38:09;;;;;;;2.97;2.10;;;18.30;99.90;;;;;;5086852;28;20663;-57
2023/06/28 08:40:35;;;;;;;7.53;2.27;;;18.40;99.90;;;;;;5089409;28;20536;-58
2023/06/28 08:43:01;;;;;;;3.77;1.93;;;18.50;99.90;;;;;;5089653;28;20164;-57
2023/06/28 08:45:30;;;;;;;6.30;2.30;;;18.50;99.90;;;;;;5088313;28;20175;-58
2023/06/28 08:47:57;;;;;;;7.07;2.40;;;18.50;99.90;;;;;;5087720;28;20493;-56
2023/06/28 08:50:23;;;;;;;5.50;2.53;;;18.50;99.90;;;;;;5088669;28;20575;-57
2023/06/28 08:52:50;;;;;;;6.27;2.67;;;18.50;99.90;;;;;;5088479;28;20164;-56
2023/06/28 08:55:16;;;;;;;5.50;3.00;;;18.50;99.90;;;;;;5086334;28;20260;-57
2023/06/28 08:57:43;;;;;;;6.97;3.03;;;18.50;99.90;;;;;;5083883;28;20198;-58
2023/06/28 09:00:10;;;;;;;2.47;2.10;;;18.50;99.90;;;;;;5086109;28;20248;-59
2023/06/28 09:02:38;;;;;;;5.37;2.20;;;18.50;99.90;;;;;;5084392;28;20199;-58
2023/06/28 09:05:07;;;;;;;7.67;2.50;;;18.60;99.90;;;;;;5086713;28;20176;-58
2023/06/28 09:07:33;;;;;;;5.80;2.73;;;18.60;99.90;;;;;;5087990;28;20175;-57
2023/06/28 09:09:59;;;;;;;5.43;2.30;;;18.70;99.90;;;;;;5088146;28;20187;-57
2023/06/28 09:12:26;;;;;;;7.43;2.30;;;18.80;99.90;;;;;;5090162;28;20225;-58
2023/06/28 09:14:52;;;;;;;3.63;2.47;;;18.70;99.90;;;;;;5087738;28;20267;-56
2023/06/28 09:17:18;;;;;;;6.47;2.30;;;18.80;99.90;;;;;;5087521;28;20259;-58
2023/06/28 09:19:44;;;;;;;7.07;2.77;;;18.90;99.90;;;;;;5088935;28;20160;-57
2023/06/28 09:22:10;;;;;;;3.87;2.17;;;19.00;99.90;;;;;;5088226;28;20172;-58
2023/06/28 09:24:36;;;;;;;6.80;2.30;;;19.00;99.90;;;;;;5088548;28;20168;-59
2023/06/28 09:27:05;;;;;;;6.27;2.20;;;19.10;99.90;;;;;;5087683;28;20180;-59
2023/06/28 09:29:30;;;;;;;6.70;2.60;;;19.10;99.90;;;;;;5089402;28;20224;-57
2023/06/28 09:31:56;;;;;;;3.53;2.50;;;19.10;99.90;;;;;;5089957;28;20228;-56
2023/06/28 09:34:22;;;;;;;7.07;2.60;;;19.10;99.90;;;;;;5089362;28;20172;-58
2023/06/28 09:36:55;;;;;;;4.00;2.40;;;19.20;99.90;;;;;;5086423;28;20164;-58
2023/06/28 09:39:22;;;;;;;4.40;2.50;;;19.20;99.90;;;;;;5084021;28;20183;-55
2023/06/28 09:41:49;;;;;;;6.67;2.63;;;19.20;99.90;;;;;;5085181;28;20172;-54
2023/06/28 09:44:15;;;;;;;6.57;2.47;;;19.30;99.90;;;;;;5085089;28;20205;-57
2023/06/28 09:46:47;;;;;;;5.63;2.27;;;19.40;99.90;;;;;;5083347;28;20454;-57
2023/06/28 09:49:23;;;;;;;4.07;2.10;;;19.50;99.90;;;;;;5084250;28;20172;-54
2023/06/28 09:52:03;;;;;;;7.27;2.60;;;19.50;99.90;;;;;;5085199;28;20270;-52
2023/06/28 09:54:30;;;;;;;9.30;3.13;;;19.60;99.90;;;;;;5086667;28;20249;-53
2023/06/28 09:56:56;;;;;;;6.83;2.40;;;19.60;99.90;;;;;;5086411;28;20164;-53
2023/06/28 09:59:26;;;;;;;6.73;3.00;;;19.50;99.90;;;;;;5086362;28;20184;-54
2023/06/28 10:01:52;;;;;;;4.60;2.60;;;19.50;99.90;;;;;;5086004;28;20294;-55
2023/06/28 10:04:19;;;;;;;4.77;2.30;;;19.50;99.90;;;;;;5085179;28;20213;-53
2023/06/28 10:06:46;;;;;;;7.07;2.67;;;19.50;99.90;;;;;;5086424;28;20182;-56
2023/06/28 10:09:16;;;;;;;5.13;2.40;;;19.50;99.90;;;;;;5086968;28;20237;-52
2023/06/28 10:11:44;;;;;;;6.73;2.40;;;19.60;99.90;;;;;;5086574;28;20168;-50
2023/06/28 10:14:12;;;;;;;5.43;2.80;;;19.70;99.90;;;;;;5084289;28;20540;-55
2023/06/28 10:16:40;;;;;;;6.87;3.00;;;19.70;99.90;;;;;;5084829;28;20196;-48
2023/06/28 10:19:09;;;;;;;8.17;2.60;;;19.70;99.90;;;;;;5086758;28;20263;-56
2023/06/28 10:21:34;;;;;;;7.80;2.90;;;19.70;99.90;;;;;;5086344;28;20266;-53
2023/06/28 10:24:03;;;;;;;6.87;2.40;;;19.70;99.90;;;;;;5087452;28;20164;-51
2023/06/28 10:26:30;;;;;;;5.73;2.33;;;19.70;99.90;;;;;;5089521;28;20161;-54
2023/06/28 10:28:57;;;;;;;9.73;2.80;;;19.70;99.90;;;;;;5089214;28;20334;-51
2023/06/28 10:31:24;;;;;;;1.90;1.70;;;19.70;99.90;;;;;;5087781;28;20226;-52
2023/06/28 10:33:50;;;;;;;7.27;2.63;;;19.70;99.90;;;;;;5089205;28;20284;-57
2023/06/28 10:36:16;;;;;;;4.13;1.83;;;19.70;99.90;;;;;;5088438;28;20267;-49
2023/06/28 10:38:45;;;;;;;3.27;1.90;;;19.70;99.90;;;;;;5091957;28;20168;-50
2023/06/28 10:41:18;;;;;;;4.93;2.50;;;19.70;99.90;;;;;;5090218;28;20175;-52
2023/06/28 10:43:44;;;;;;;4.13;2.00;;;19.70;99.90;;;;;;5087141;28;20260;-55
2023/06/28 10:46:24;;;;;;;4.97;2.43;;;19.80;99.90;;;;;;5086650;28;20160;-50
2023/06/28 10:48:53;;;;;;;4.80;2.03;;;19.90;99.90;;;;;;5087613;28;20168;-52
2023/06/28 10:51:21;;;;;;;5.70;2.10;;;19.90;99.90;;;;;;5087169;28;20312;-55
2023/06/28 10:53:53;;;;;;;5.17;2.10;;;19.90;99.90;;;;;;5086910;28;20168;-53
2023/06/28 10:56:20;;;;;;;5.43;2.27;;;19.90;99.90;;;;;;5088182;28;20164;-53
2023/06/28 10:58:47;;;;;;;3.87;2.43;;;19.90;99.90;;;;;;5089417;28;20164;-52
2023/06/28 11:01:31;;;;;;;3.83;2.47;;;20.00;99.90;;;;;;5088149;28;20175;-54
2023/06/28 11:04:16;;;;;;;5.70;3.10;;;20.10;99.90;;;;;;5089512;28;20172;-52
2023/06/28 11:06:42;;;;;;;6.47;2.40;;;20.20;99.90;;;;;;5090325;28;20655;-53
2023/06/28 11:09:15;;;;;;;5.27;2.23;;;20.30;99.90;;;;;;5089924;28;20682;-52
2023/06/28 11:11:42;;;;;;;6.67;2.10;;;20.30;99.90;;;;;;5089679;28;20462;-55
2023/06/28 11:14:17;;;;;;;6.80;2.60;;;20.40;99.90;;;;;;5087272;28;20172;-51
2023/06/28 11:16:46;;;;;;;3.50;2.50;;;20.40;99.90;;;;;;5089521;28;20466;-53
2023/06/28 11:19:18;;;;;;;3.87;2.03;;;20.50;99.90;;;;;;5086709;28;20164;-56
2023/06/28 11:21:48;;;;;;;2.37;1.90;;;20.50;99.90;;;;;;5085705;28;20161;-57
2023/06/28 11:24:29;;;;;;;6.30;1.87;;;20.50;99.90;;;;;;5086163;28;20164;-58
2023/06/28 11:26:55;;;;;;;4.70;2.23;;;20.50;99.90;;;;;;5085009;28;20659;-58
2023/06/28 11:29:21;;;;;;;3.77;2.00;;;20.50;99.90;;;;;;5085435;28;20591;-56
2023/06/28 11:31:52;;;;;;;4.50;2.00;;;20.60;99.90;;;;;;5085651;28;20180;-56
2023/06/28 11:34:19;;;;;;;4.77;2.20;;;20.60;99.90;;;;;;5085334;28;20266;-58
2023/06/28 11:36:49;;;;;;;3.60;2.00;;;20.70;99.90;;;;;;5087387;28;20579;-58
2023/06/28 11:39:16;;;;;;;6.17;2.00;;;20.70;99.90;;;;;;5087060;28;20228;-57
2023/06/28 11:41:43;;;;;;;5.20;2.03;;;20.60;99.90;;;;;;5088873;28;20179;-58
2023/06/28 11:44:09;;;;;;;5.30;2.03;;;20.60;99.90;;;;;;5089562;28;20244;-57
2023/06/28 11:46:36;;;;;;;6.40;2.20;;;20.70;99.90;;;;;;5090351;28;20243;-57
2023/06/28 11:49:03;;;;;;;3.70;2.40;;;20.70;99.90;;;;;;5090775;28;20164;-58
2023/06/28 11:51:30;;;;;;;7.47;3.00;;;20.70;99.90;;;;;;5091177;28;20164;-57
2023/06/28 11:53:56;;;;;;;3.00;2.40;;;20.80;99.90;;;;;;5090321;28;20172;-58
2023/06/28 11:56:40;;;;;;;3.30;2.60;;;20.90;99.90;;;;;;5091507;28;20178;-53
2023/06/28 11:59:15;;;;;;;5.40;3.70;;;21.10;99.90;;;;;;5088585;28;20793;-54
2023/06/28 12:01:42;;;;;;;4.20;3.27;;;21.10;99.90;;;;;;5087423;28;20175;-53
2023/06/28 12:04:19;;;;;;;3.43;3.13;;;21.20;99.90;;;;;;5087673;28;20244;-53
2023/06/28 12:06:45;;;;;;;2.90;2.70;;;21.30;99.90;;;;;;5090809;28;20551;-56
2023/06/28 12:09:23;;;;;;;3.30;3.00;;;21.50;99.90;;;;;;5091198;28;20164;-55
2023/06/28 12:11:58;;;;;;;5.73;5.03;;;21.60;99.90;;;;;;5090262;28;20191;-52
2023/06/28 12:14:24;;;;;;;5.70;5.10;;;21.70;99.90;;;;;;5086078;28;20686;-54
2023/06/28 12:16:50;;;;;;;4.80;4.23;;;21.80;99.90;;;;;;5086977;28;20164;-56
2023/06/28 12:19:17;;;;;;;5.57;5.17;;;21.90;99.90;;;;;;5084528;28;20171;-56
2023/06/28 12:21:44;;;;;;;11.30;10.27;;;22.00;99.90;;;;;;5084945;28;20167;-54
2023/06/28 12:24:19;;;;;;;4.33;3.40;;;22.10;99.90;;;;;;5083195;28;20168;-54
2023/06/28 12:26:49;;;;;;;3.43;2.87;;;22.20;99.90;;;;;;5081939;28;20163;-51
2023/06/28 12:29:18;;;;;;;5.57;2.40;;;22.20;99.90;;;;;;5076810;28;20293;-54
2023/06/28 12:31:48;;;;;;;5.80;2.23;;;22.20;99.90;;;;;;5076081;28;20452;-55
2023/06/28 12:34:24;;;;;;;4.13;2.20;;;22.10;99.90;;;;;;5079812;28;20176;-53
2023/06/28 12:37:01;;;;;;;7.00;2.40;;;22.00;99.90;;;;;;5082184;28;20232;-51
2023/06/28 12:39:28;;;;;;;4.10;2.10;;;22.10;99.90;;;;;;5080127;28;20754;-52
2023/06/28 12:42:05;;;;;;;3.73;2.60;;;22.20;99.90;;;;;;5082165;28;20168;-49
2023/06/28 12:44:50;;;;;;;3.87;1.90;;;22.40;99.90;;;;;;5086245;28;20186;-53
2023/06/28 12:47:25;;;;;;;2.83;2.03;;;22.50;99.90;;;;;;5084523;28;20195;-55